Valdosta, GA

3:09 PM EDT on October 30, 2014 (GMT -0400)
Audio Video and Security Inc. | Change Station
CLOSE
Current Station
Personal Weather Station
Location: Valdosta, GA
Elevation: 220 ft
Nearby Weather Stations

Elev 220 ft 30.81 °N, 83.32 °W | Updated 55 seconds ago

Scattered Clouds
Scattered Clouds
65.7 °F
Feels Like 65.7 °F
N
3.8
Wind Variable Wind from ESE
Gusts 5.4 mph

Today
High -- | Low -- °F
--% Chance of Precip.
Yesterday
High -- | Low -- °F
Precip. -- in
7:46 AM 6:46 PM
Waxing Crescent, 46% visible
Pressure 29.97 in
Visibility 10.0 miles
Clouds Few 4600 ft
Scattered Clouds 9000 ft
Scattered Clouds 12000 ft
Dew Point 50 °F
Humidity 56%
Rainfall 0.00 in
Snow Depth Not available.
UV 5 out of 12
Pollen 2.00 out of 12
Air Quality Not available.
Flu Activity Not available.
METAR KVLD 301853Z 31003KT 10SM FEW046 SCT090 SCT120 19/07 A2995 RMK AO2 SLP149 T01940072

More Conditions Fewer Conditions

Pressure 29.97 in
Visibility 10.0 miles
Clouds Few 4600 ft
Scattered Clouds 9000 ft
Scattered Clouds 12000 ft
Dew Point 50 °F
Humidity 56%
Rainfall 0.00 in
Snow Depth Not available.
UV 5 out of 12
Pollen 2.00 out of 12
Air Quality Not available.
Flu Activity Not available.
METAR KVLD 301853Z 31003KT 10SM FEW046 SCT090 SCT120 19/07 A2995 RMK AO2 SLP149 T01940072

More Conditions Fewer Conditions

10-Day Weather Forecast

Almanac

Astronomy

Oct. 30, 2014 Rise Set
Actual Time
Civil Twilight
Nautical Twilight
Astronomical Twilight
Moon
Length of Visible Light
Length of Day
Tomorrow will be .
, % of the Moon is Illuminated

Today's Extremes

State Highs State Lows

Community

WunderPhotos

Upload Photos

1,766,439 photos uploaded!

WunderBlogs® & News

Nearby

Air Quality

  Air Quality AQ Index Pollutant
Not available.

Snow Depth

Station Depth Elevation

Earthquake Activity

City Distance Mag. Time & Date
Minimum magnitude displayed is 2.5.

Coastal Water Temperatures

Place Temperature

Nearby Weather Stations